createdAt,value
2018-06-09T01:09:45.854Z,20.40
2018-06-09T01:12:20.809Z,21.07
2018-06-09T01:14:54.190Z,17.90
2018-06-09T01:17:28.147Z,18.13
2018-06-09T01:20:01.706Z,18.93
2018-06-09T01:25:22.764Z,18.90
2018-06-09T01:27:56.913Z,17.43
2018-06-09T01:30:34.427Z,15.97
2018-06-09T01:33:07.834Z,15.50
2018-06-09T01:35:41.249Z,15.90
2018-06-09T01:38:13.040Z,14.80
2018-06-09T01:40:46.290Z,13.47
2018-06-09T01:43:19.736Z,12.90
2018-06-09T01:45:53.045Z,12.40
2018-06-09T01:48:26.292Z,13.43
2018-06-09T01:50:59.489Z,13.07
2018-06-09T01:53:32.778Z,12.30
2018-06-09T01:56:06.003Z,11.60
2018-06-09T01:58:40.113Z,12.40
2018-06-09T02:01:13.409Z,12.17
2018-06-09T02:03:46.772Z,12.07
2018-06-09T02:06:21.139Z,13.43
2018-06-09T02:08:54.420Z,13.97
2018-06-09T02:11:27.566Z,14.00
2018-06-09T02:14:00.757Z,15.20
2018-06-09T02:16:34.123Z,15.70
2018-06-09T02:19:07.353Z,16.70
2018-06-09T02:21:40.638Z,15.00
2018-06-09T02:24:13.809Z,14.80
2018-06-09T02:26:47.030Z,15.30
2018-06-09T02:29:20.315Z,12.17
2018-06-09T02:31:52.135Z,14.20
2018-06-09T02:34:25.687Z,14.27
2018-06-09T02:37:01.726Z,16.17
2018-06-09T02:39:36.071Z,17.77
2018-06-09T02:42:09.405Z,20.30
2018-06-09T02:44:42.689Z,17.33
2018-06-09T02:47:15.881Z,18.27
2018-06-09T02:49:49.134Z,16.57
2018-06-09T02:52:22.558Z,14.17
2018-06-09T02:54:55.800Z,13.43
2018-06-09T02:57:29.130Z,15.23
2018-06-09T03:00:02.439Z,14.97
2018-06-09T03:02:35.655Z,13.90
2018-06-09T03:05:09.006Z,13.57
2018-06-09T03:07:42.229Z,12.83
2018-06-09T03:10:15.520Z,14.80
2018-06-09T03:12:48.877Z,12.53
2018-06-09T03:15:20.840Z,13.67
2018-06-09T03:17:54.086Z,14.70
2018-06-09T03:20:27.281Z,15.53
2018-06-09T03:23:00.554Z,15.60
2018-06-09T03:25:34.556Z,16.20
2018-06-09T03:28:07.766Z,15.90
2018-06-09T03:30:41.071Z,17.73
2018-06-09T03:33:14.225Z,15.70
2018-06-09T03:35:48.138Z,17.87
2018-06-09T03:38:21.274Z,18.40
2018-06-09T03:40:54.627Z,18.40
2018-06-09T03:43:27.995Z,18.40
2018-06-09T03:46:01.303Z,17.93
2018-06-09T03:48:34.525Z,21.13
2018-06-09T03:51:07.713Z,16.67
2018-06-09T03:53:41.177Z,17.00
2018-06-09T03:56:14.379Z,17.83
2018-06-09T03:58:48.353Z,16.90
2018-06-09T04:01:21.699Z,17.60
2018-06-09T04:03:55.927Z,17.87
2018-06-09T04:06:29.186Z,16.10
2018-06-09T04:09:02.480Z,19.07
2018-06-09T04:11:35.746Z,16.80
2018-06-09T04:14:09.049Z,15.43
2018-06-09T04:16:43.313Z,15.93
2018-06-09T04:19:16.615Z,16.07
2018-06-09T04:21:49.816Z,17.30
2018-06-09T04:24:23.140Z,18.93
2018-06-09T04:26:56.455Z,17.80
2018-06-09T04:29:29.739Z,16.63
2018-06-09T04:32:04.951Z,17.60
2018-06-09T04:34:38.298Z,17.10
2018-06-09T04:37:12.631Z,16.10
2018-06-09T04:39:45.889Z,15.43
2018-06-09T04:42:19.110Z,14.10
2018-06-09T04:44:52.381Z,14.70
2018-06-09T04:47:25.735Z,15.40
2018-06-09T04:49:59.078Z,14.37
2018-06-09T04:52:32.456Z,14.10
2018-06-09T04:55:06.769Z,12.73
2018-06-09T04:57:40.103Z,12.60
2018-06-09T05:00:13.575Z,13.83
2018-06-09T05:02:46.926Z,13.03
2018-06-09T05:05:20.243Z,12.33
2018-06-09T05:07:54.570Z,15.10
2018-06-09T05:10:27.774Z,15.50
2018-06-09T05:13:01.786Z,16.07
2018-06-09T05:15:37.793Z,16.40
2018-06-09T05:18:13.308Z,12.93
2018-06-09T05:20:47.163Z,12.63
2018-06-09T05:23:20.529Z,11.27
2018-06-09T05:25:53.961Z,11.57
2018-06-09T05:28:28.339Z,12.40
2018-06-09T05:31:01.645Z,13.57
2018-06-09T05:33:34.976Z,11.90
2018-06-09T05:36:08.291Z,9.77
2018-06-09T05:38:41.514Z,11.20
2018-06-09T05:41:14.741Z,11.13
2018-06-09T05:43:47.971Z,11.70
2018-06-09T05:46:21.219Z,11.90
2018-06-09T05:48:54.388Z,11.23
2018-06-09T05:51:27.728Z,9.20
2018-06-09T05:54:01.193Z,10.20
2018-06-09T05:56:34.631Z,8.33
2018-06-09T05:59:07.884Z,7.97
2018-06-09T06:01:41.109Z,7.90
2018-06-09T06:04:14.261Z,9.63
2018-06-09T06:06:47.532Z,8.37
2018-06-09T06:09:20.769Z,7.63
2018-06-09T06:11:54.050Z,8.00
2018-06-09T06:14:27.421Z,8.83
2018-06-09T06:17:00.590Z,9.47
2018-06-09T06:19:33.917Z,8.80
2018-06-09T06:22:07.149Z,10.53
2018-06-09T06:24:40.356Z,8.63
2018-06-09T06:27:13.633Z,9.33
2018-06-09T06:29:46.766Z,9.10
2018-06-09T06:32:19.978Z,10.10
2018-06-09T06:34:53.275Z,9.60
2018-06-09T06:37:26.535Z,9.50
2018-06-09T06:40:02.722Z,9.90
2018-06-09T06:42:39.366Z,8.90
2018-06-09T06:45:12.438Z,8.83
2018-06-09T06:47:45.661Z,9.93
2018-06-09T06:50:19.075Z,9.07
2018-06-09T06:52:52.339Z,8.80
2018-06-09T06:55:25.688Z,8.10
2018-06-09T06:57:58.959Z,9.60
2018-06-09T07:00:32.226Z,9.10
2018-06-09T07:03:05.413Z,10.43
2018-06-09T07:05:38.768Z,8.67
2018-06-09T07:08:11.967Z,9.17
2018-06-09T07:10:45.970Z,9.80
2018-06-09T07:13:19.915Z,10.70
2018-06-09T07:15:53.152Z,9.27
2018-06-09T07:18:26.351Z,10.70
2018-06-09T07:21:07.644Z,9.67
2018-06-09T07:23:40.794Z,9.00
2018-06-09T07:26:14.852Z,9.10
2018-06-09T07:28:48.921Z,10.30
2018-06-09T07:31:22.226Z,8.30
2018-06-09T07:33:57.070Z,9.50
2018-06-09T07:36:30.387Z,9.37
2018-06-09T07:39:05.010Z,9.70
2018-06-09T07:41:39.193Z,9.43
2018-06-09T07:44:12.389Z,9.10
2018-06-09T07:46:45.762Z,9.07
2018-06-09T07:49:19.112Z,9.47
2018-06-09T07:51:52.378Z,9.50
2018-06-09T07:54:25.701Z,10.10
2018-06-09T07:56:58.986Z,11.43
2018-06-09T07:59:32.399Z,11.00
2018-06-09T08:02:06.854Z,11.43
2018-06-09T08:04:40.125Z,11.40
2018-06-09T08:07:13.363Z,11.20
2018-06-09T08:09:46.610Z,11.17
2018-06-09T08:12:19.699Z,11.43
2018-06-09T08:14:53.020Z,12.10
2018-06-09T08:17:26.356Z,12.50
2018-06-09T08:19:59.676Z,12.28
2018-06-09T08:22:32.877Z,11.22
2018-06-09T08:25:06.041Z,11.37
2018-06-09T08:27:52.113Z,11.43
2018-06-09T08:30:26.078Z,10.67
2018-06-09T08:32:59.226Z,10.95
2018-06-09T08:35:32.505Z,11.43
2018-06-09T08:38:05.633Z,11.07
2018-06-09T08:40:38.817Z,11.70
2018-06-09T08:43:11.971Z,11.47
2018-06-09T08:45:45.322Z,11.13
2018-06-09T08:48:18.486Z,11.80
2018-06-09T08:50:51.666Z,12.57
2018-06-09T08:53:24.872Z,13.07
2018-06-09T08:55:57.931Z,12.83
2018-06-09T08:58:31.044Z,11.73
2018-06-09T09:01:04.169Z,13.50
2018-06-09T09:03:38.626Z,13.47
2018-06-09T09:06:11.902Z,13.40
2018-06-09T09:08:45.145Z,13.03
2018-06-09T09:11:18.458Z,12.60
2018-06-09T09:13:51.902Z,13.90
2018-06-09T09:16:25.176Z,12.93
2018-06-09T09:18:58.413Z,14.40
2018-06-09T09:21:31.623Z,14.60
2018-06-09T09:24:05.001Z,14.10
2018-06-09T09:26:38.257Z,13.03
2018-06-09T09:29:11.538Z,12.27
2018-06-09T09:31:44.943Z,12.43
2018-06-09T09:34:18.098Z,13.00
2018-06-09T09:36:51.261Z,12.70
2018-06-09T09:39:24.461Z,12.50
2018-06-09T09:41:57.699Z,11.53
2018-06-09T09:44:30.838Z,11.87
2018-06-09T09:47:04.226Z,11.60
2018-06-09T09:49:37.766Z,11.27
2018-06-09T09:52:10.956Z,12.03
2018-06-09T09:54:44.878Z,12.40
2018-06-09T09:57:17.984Z,12.73
2018-06-09T09:59:51.224Z,13.30
2018-06-09T10:02:24.454Z,13.10
2018-06-09T10:04:57.636Z,14.40
2018-06-09T10:07:31.719Z,13.20
2018-06-09T10:10:04.776Z,12.77
2018-06-09T10:12:38.031Z,14.23
2018-06-09T10:15:11.369Z,15.10
2018-06-09T10:17:44.526Z,19.50
2018-06-09T10:20:22.987Z,20.97
2018-06-09T10:22:56.149Z,18.90
2018-06-09T10:25:29.453Z,14.70
2018-06-09T10:28:02.820Z,16.83
2018-06-09T10:30:36.066Z,15.10
2018-06-09T10:33:09.305Z,15.07
2018-06-09T10:35:42.466Z,16.47
2018-06-09T10:38:15.692Z,15.70
2018-06-09T10:40:48.994Z,15.30
2018-06-09T10:43:22.250Z,16.50
2018-06-09T10:45:55.591Z,16.80
2018-06-09T10:48:28.850Z,16.43
2018-06-09T10:51:02.843Z,15.70
2018-06-09T10:53:36.100Z,14.50
2018-06-09T10:56:09.444Z,16.67
2018-06-09T10:58:42.780Z,15.93
2018-06-09T11:01:16.030Z,16.17
2018-06-09T11:03:49.192Z,18.00
2018-06-09T11:06:22.271Z,17.57
2018-06-09T11:08:55.518Z,16.77
2018-06-09T11:11:28.798Z,17.00
2018-06-09T11:14:01.968Z,17.20
2018-06-09T11:16:35.098Z,18.77
2018-06-09T11:19:08.319Z,17.40
2018-06-09T11:21:41.513Z,18.40
2018-06-09T11:24:13.169Z,17.77
2018-06-09T11:26:47.837Z,18.57
2018-06-09T11:29:20.997Z,18.40
2018-06-09T11:31:54.126Z,17.50
2018-06-09T11:34:27.290Z,18.23
2018-06-09T11:37:00.361Z,18.20
2018-06-09T11:39:33.479Z,17.60
2018-06-09T11:42:06.725Z,17.23
2018-06-09T11:44:39.825Z,17.40
2018-06-09T11:47:12.945Z,17.03
2018-06-09T11:49:46.038Z,17.93
2018-06-09T11:52:20.927Z,19.10
2018-06-09T11:54:54.753Z,18.10
2018-06-09T11:57:27.973Z,18.37
2018-06-09T12:00:01.032Z,18.50
2018-06-09T12:02:34.073Z,18.63
2018-06-09T12:05:07.212Z,18.00
2018-06-09T12:07:40.452Z,17.20
2018-06-09T12:10:13.574Z,18.53
2018-06-09T12:12:46.767Z,18.03
2018-06-09T12:15:19.853Z,17.50
2018-06-09T12:17:52.906Z,19.60
2018-06-09T12:20:26.090Z,18.57
2018-06-09T12:22:59.176Z,19.03
2018-06-09T12:25:32.261Z,18.23
2018-06-09T12:28:05.337Z,18.90
2018-06-09T12:30:38.405Z,19.70
2018-06-09T12:33:11.555Z,20.30
2018-06-09T12:35:44.558Z,20.73
2018-06-09T12:38:17.689Z,18.93
2018-06-09T12:40:50.897Z,20.50
2018-06-09T12:43:24.076Z,20.03
2018-06-09T12:45:57.253Z,20.50
2018-06-09T12:48:30.310Z,20.30
2018-06-09T12:51:04.492Z,21.80
2018-06-09T12:53:37.676Z,21.97
2018-06-09T12:56:10.817Z,21.30
2018-06-09T12:58:44.209Z,22.03
2018-06-09T13:01:17.420Z,20.13
2018-06-09T13:03:50.504Z,21.27
2018-06-09T13:06:23.581Z,21.63
2018-06-09T13:08:56.722Z,22.13
2018-06-09T13:11:29.917Z,22.80
2018-06-09T13:14:03.118Z,21.53
2018-06-09T13:16:36.413Z,21.47
2018-06-09T13:19:09.558Z,21.97
2018-06-09T13:21:41.757Z,21.27
2018-06-09T13:24:14.881Z,20.57
2018-06-09T13:26:47.941Z,19.60
2018-06-09T13:29:20.969Z,20.80
2018-06-09T13:31:54.031Z,21.50
2018-06-09T13:34:27.118Z,21.00
2018-06-09T13:37:00.226Z,20.30
2018-06-09T13:39:33.572Z,20.53
2018-06-09T13:42:06.718Z,21.97
2018-06-09T13:44:39.886Z,21.60
2018-06-09T13:47:14.040Z,21.60
2018-06-09T13:49:47.054Z,21.97
2018-06-09T13:52:20.195Z,22.63
2018-06-09T13:54:53.225Z,21.03
2018-06-09T13:57:26.453Z,22.57
2018-06-09T14:00:00.186Z,22.47
2018-06-09T14:02:33.412Z,22.10
2018-06-09T14:05:06.493Z,22.00
2018-06-09T14:07:39.593Z,21.67
2018-06-09T14:10:12.794Z,21.57
2018-06-09T14:12:45.950Z,22.23
2018-06-09T14:15:19.053Z,21.57
2018-06-09T14:17:52.286Z,20.77
2018-06-09T14:20:26.092Z,21.33
2018-06-09T14:22:59.264Z,20.87
2018-06-09T14:25:32.436Z,20.73
2018-06-09T14:28:06.157Z,20.17
2018-06-09T14:30:39.433Z,20.67
2018-06-09T14:33:12.478Z,20.47
2018-06-09T14:35:45.613Z,20.37
2018-06-09T14:38:18.791Z,19.90
2018-06-09T14:40:51.861Z,20.50
2018-06-09T14:43:25.089Z,19.90
2018-06-09T14:45:58.241Z,21.67
2018-06-09T14:48:31.544Z,20.83
2018-06-09T14:51:04.684Z,21.50
2018-06-09T14:53:37.824Z,20.50
2018-06-09T14:56:11.013Z,21.57
2018-06-09T14:58:44.175Z,22.00
2018-06-09T15:01:17.267Z,21.90
2018-06-09T15:03:50.308Z,23.00
2018-06-09T15:06:23.546Z,22.47
2018-06-09T15:08:56.678Z,22.83
2018-06-09T15:11:29.883Z,24.33
2018-06-09T15:14:03.045Z,23.20
2018-06-09T15:16:36.129Z,25.83
2018-06-09T15:19:09.281Z,22.60
2018-06-09T15:21:42.367Z,23.60
2018-06-09T15:24:15.552Z,22.00
2018-06-09T15:26:48.825Z,22.87
2018-06-09T15:29:21.895Z,23.40
2018-06-09T15:31:53.761Z,22.63
2018-06-09T15:34:26.865Z,24.40
2018-06-09T15:36:59.997Z,23.67
2018-06-09T15:39:33.220Z,24.00
2018-06-09T15:42:06.343Z,24.33
2018-06-09T15:44:40.158Z,25.13
2018-06-09T15:47:13.261Z,24.80
2018-06-09T15:49:46.347Z,24.37
2018-06-09T15:52:19.811Z,27.17
2018-06-09T15:54:53.044Z,25.50
2018-06-09T15:57:26.170Z,27.33
2018-06-09T15:59:59.973Z,26.60
2018-06-09T16:02:33.271Z,28.20
2018-06-09T16:05:06.411Z,26.00
2018-06-09T16:07:39.643Z,28.50
2018-06-09T16:10:13.783Z,27.63
2018-06-09T16:12:47.880Z,27.80
2018-06-09T16:15:19.665Z,26.97
2018-06-09T16:17:52.965Z,28.43
2018-06-09T16:20:26.317Z,28.07
2018-06-09T16:22:59.600Z,29.03
2018-06-09T16:25:32.875Z,26.37
2018-06-09T16:28:06.204Z,26.87
2018-06-09T16:30:39.493Z,26.87
2018-06-09T16:33:12.691Z,27.80
2018-06-09T16:35:46.010Z,26.37
2018-06-09T16:38:19.245Z,27.37
2018-06-09T16:40:52.546Z,26.03
2018-06-09T16:43:25.766Z,28.53
2018-06-09T16:45:58.955Z,27.80
2018-06-09T16:48:32.150Z,29.03
2018-06-09T16:51:05.392Z,29.80
2018-06-09T16:53:39.636Z,28.90
2018-06-09T16:56:14.669Z,30.27
2018-06-09T16:58:47.864Z,30.23
2018-06-09T17:01:21.093Z,30.70
2018-06-09T17:03:54.310Z,29.90
2018-06-09T17:06:40.531Z,29.27
2018-06-09T17:09:26.793Z,28.90
2018-06-09T17:11:59.947Z,32.07
2018-06-09T17:14:33.104Z,28.33
2018-06-09T17:17:06.415Z,30.10
2018-06-09T17:19:39.684Z,29.93
2018-06-09T17:22:25.853Z,31.00
2018-06-09T17:24:59.081Z,30.00
2018-06-09T17:27:32.246Z,32.47
2018-06-09T17:30:05.558Z,31.40
2018-06-09T17:32:38.708Z,31.97
2018-06-09T17:35:11.935Z,31.20
2018-06-09T17:37:45.154Z,31.70
2018-06-09T17:40:18.296Z,30.57
2018-06-09T17:42:51.541Z,30.27
2018-06-09T17:45:24.681Z,29.43
2018-06-09T17:47:57.894Z,31.80
2018-06-09T17:50:31.066Z,30.63
2018-06-09T17:53:05.372Z,30.13
2018-06-09T17:55:40.418Z,27.53
2018-06-09T17:58:13.634Z,29.93
2018-06-09T18:00:46.867Z,27.10
2018-06-09T18:03:20.073Z,27.47
2018-06-09T18:05:53.215Z,26.40
2018-06-09T18:08:26.490Z,26.70
2018-06-09T18:10:59.750Z,27.97
2018-06-09T18:13:33.014Z,27.20
2018-06-09T18:16:06.278Z,25.47
2018-06-09T18:18:42.144Z,24.67
2018-06-09T18:21:17.162Z,26.13
2018-06-09T18:23:55.523Z,26.33
2018-06-09T18:26:28.615Z,25.40
2018-06-09T18:29:01.743Z,26.83
2018-06-09T18:31:35.085Z,25.87
2018-06-09T18:34:09.316Z,27.10
2018-06-09T18:36:43.562Z,27.13
2018-06-09T18:39:17.893Z,28.00
2018-06-09T18:41:51.237Z,25.00
2018-06-09T18:44:24.636Z,24.17
2018-06-09T18:47:03.874Z,25.10
2018-06-09T18:49:35.748Z,25.43
2018-06-09T18:52:14.429Z,23.80
2018-06-09T18:54:50.190Z,24.07
2018-06-09T18:57:29.011Z,24.43
2018-06-09T19:00:02.240Z,24.60
2018-06-09T19:02:38.670Z,25.13
2018-06-09T19:05:13.487Z,27.47
2018-06-09T19:07:49.930Z,25.13
2018-06-09T19:10:23.409Z,24.20
2018-06-09T19:12:56.792Z,25.70
2018-06-09T19:15:31.504Z,23.70
2018-06-09T19:18:06.052Z,24.60
2018-06-09T19:20:39.372Z,24.67
2018-06-09T19:23:21.676Z,24.77
2018-06-09T19:25:54.935Z,24.00
2018-06-09T19:28:28.433Z,23.50
2018-06-09T19:31:01.981Z,24.97
2018-06-09T19:33:35.340Z,23.80
2018-06-09T19:36:08.526Z,23.87
2018-06-09T19:38:41.810Z,24.40
2018-06-09T19:41:15.089Z,23.53
2018-06-09T19:43:48.382Z,24.60
2018-06-09T19:46:23.110Z,23.00
2018-06-09T19:48:57.216Z,23.17
2018-06-09T19:51:34.075Z,23.40
2018-06-09T19:54:08.293Z,23.50
2018-06-09T19:56:44.817Z,22.67
2018-06-09T19:59:18.076Z,23.50
2018-06-09T20:01:51.329Z,21.83
2018-06-09T20:04:25.033Z,21.97
2018-06-09T20:06:58.337Z,23.30
2018-06-09T20:09:31.944Z,22.10
2018-06-09T20:12:06.954Z,23.40
2018-06-09T20:14:41.220Z,23.23
2018-06-09T20:17:14.582Z,23.43
2018-06-09T20:19:49.900Z,24.00
2018-06-09T20:22:23.513Z,23.17
2018-06-09T20:24:58.888Z,24.17
2018-06-09T20:27:32.293Z,22.23
2018-06-09T20:30:06.792Z,23.77
2018-06-09T20:32:39.982Z,23.87
2018-06-09T20:35:13.417Z,22.80
2018-06-09T20:37:45.121Z,25.27
2018-06-09T20:40:18.355Z,23.30
2018-06-09T20:42:54.077Z,25.10
2018-06-09T20:45:28.070Z,25.80
2018-06-09T20:48:01.346Z,24.87
2018-06-09T20:50:34.938Z,26.70
2018-06-09T20:53:09.289Z,24.63
2018-06-09T20:55:42.837Z,26.50
2018-06-09T20:58:18.580Z,27.53
2018-06-09T21:00:50.323Z,26.80
2018-06-09T21:03:23.600Z,28.40
2018-06-09T21:05:56.971Z,28.40
2018-06-09T21:08:30.288Z,27.50
2018-06-09T21:11:03.470Z,28.47
2018-06-09T21:13:36.848Z,25.77
2018-06-09T21:16:10.110Z,25.50
2018-06-09T21:18:43.251Z,27.10
2018-06-09T21:21:16.585Z,26.30
2018-06-09T21:23:49.847Z,28.60
2018-06-09T21:26:22.997Z,27.20
2018-06-09T21:28:57.626Z,27.60
2018-06-09T21:31:36.003Z,29.47
2018-06-09T21:34:18.431Z,25.70
2018-06-09T21:36:55.617Z,27.60
2018-06-09T21:39:34.481Z,24.53
2018-06-09T21:42:11.909Z,23.10
2018-06-09T21:44:50.772Z,22.70
2018-06-09T21:47:23.974Z,22.50
2018-06-09T21:49:57.266Z,23.40
2018-06-09T21:52:30.608Z,23.47
2018-06-09T21:55:03.923Z,22.70
2018-06-09T21:57:35.632Z,19.33
2018-06-09T22:00:10.407Z,20.63
2018-06-09T22:02:43.659Z,19.67
2018-06-09T22:05:16.817Z,17.07
2018-06-09T22:07:49.980Z,14.90
2018-06-09T22:10:23.051Z,15.77
2018-06-09T22:12:56.209Z,15.97
2018-06-09T22:15:29.434Z,15.90
2018-06-09T22:18:02.573Z,15.70
2018-06-09T22:20:35.879Z,16.50
2018-06-09T22:23:09.126Z,14.97
2018-06-09T22:25:46.471Z,15.10
2018-06-09T22:28:19.718Z,14.87
2018-06-09T22:30:52.872Z,15.83
2018-06-09T22:33:26.122Z,13.80
2018-06-09T22:35:59.399Z,14.10
2018-06-09T22:38:32.589Z,13.70
2018-06-09T22:41:06.139Z,10.87
2018-06-09T22:43:39.417Z,11.47
2018-06-09T22:46:12.705Z,12.70
2018-06-09T22:48:46.008Z,12.43
2018-06-09T22:51:19.972Z,12.80
2018-06-09T22:53:53.226Z,13.97
2018-06-09T22:56:26.521Z,15.07
2018-06-09T22:58:59.769Z,14.80
2018-06-09T23:01:33.027Z,17.03
2018-06-09T23:04:06.291Z,16.27
2018-06-09T23:06:39.530Z,15.73
2018-06-09T23:09:13.109Z,14.97
2018-06-09T23:11:46.236Z,16.30
2018-06-09T23:14:19.399Z,15.40
2018-06-09T23:16:52.550Z,16.90
2018-06-09T23:19:29.295Z,19.30
2018-06-09T23:22:02.886Z,15.43
2018-06-09T23:24:53.539Z,16.60
2018-06-09T23:27:29.245Z,17.60
2018-06-09T23:30:11.273Z,17.33
2018-06-09T23:32:46.130Z,18.00
2018-06-09T23:35:27.019Z,17.20
2018-06-09T23:38:17.860Z,19.00
2018-06-09T23:40:51.765Z,19.87
2018-06-09T23:43:25.956Z,20.10
2018-06-09T23:45:59.331Z,19.53
2018-06-09T23:48:32.468Z,18.20
2018-06-09T23:51:05.729Z,18.10
2018-06-09T23:53:42.815Z,21.60
2018-06-09T23:56:23.380Z,19.70
2018-06-09T23:59:01.911Z,19.80
